Terminal Aerodrome Forecast
Issued by NWS

Current Version | Previous Version | Graphics & Text | Print | Product List | Glossary On
Versions: 1 2 3 4 5 6 7 8 9 10 11 12 13 14 15 16 17 18 19 20 21 22 23 24 25 26 27 28 29 30 31
000
FTUS41 KILN 211300 AAB
TAFLUK
TAF AMD
KLUK 211322Z 2113/2212 25009KT P6SM SCT022 BKN028 BKN100
     FM211500 26014G24KT P6SM SCT035
     FM211600 28015G25KT P6SM SCT040
     FM212000 32016G26KT P6SM BKN050
     FM220200 32010KT P6SM OVC028=

USA.gov is the U.S. government's official web portal to all federal, state and local government web resources and services.